Back to Top

Language: 

My Weather Underground Personal Weather Station Historical Data with Graphs...

Delerius Weather Station Historical Data
Daily Summary for July 3, 2017 Units:  English    Metric   Both
« Previous Day
Next Day »
Daily Weekly Monthly Yearly Custom
  High: Low: Average:
Temperature: 69.6 °F 54.5 °F 61.4 °F
Dew Point: 56.7 °F 44.7 °F 51.6 °F
Humidity: 87 % 55 % 71 %
Wind Speed: 14.0 mph 0.0 mph 7.2 mph
Wind Gust: 28.0 mph - -
Wind:- - WNW
Pressure: 30.14 in 30.02 in -
Precipitation: 0.00 in    
Historical Graphs
 
 
Tabular Data for July 3, 2017
Time Temperature Dew Point Pressure Wind Wind Speed Wind Gust Humidity Rainfall Rate (Hourly) solar Conditions
00:02 58.6 °F 53.2 °F 30.09 in West 1.0 mph 5.0 mph 82 % 0.00 in 0 W/m2
00:07 58.5 °F 52.6 °F 30.09 in West 1.0 mph 5.0 mph 81 % 0.00 in 0 W/m2
00:08 58.5 °F 52.6 °F 30.09 in West 1.0 mph 5.0 mph 81 % 0.00 in 0 W/m2
00:13 58.5 °F 53.0 °F 30.09 in West 1.0 mph 3.0 mph 82 % 0.00 in 0 W/m2
00:18 58.3 °F 52.8 °F 30.08 in Calm   3.0 mph 82 % 0.00 in 0 W/m2
00:23 58.3 °F 52.8 °F 30.08 in Calm     82 % 0.00 in 0 W/m2
00:28 58.1 °F 52.6 °F 30.08 in Calm   4.0 mph 82 % 0.00 in 0 W/m2
00:33 58.1 °F 52.6 °F 30.08 in West 1.0 mph 4.0 mph 82 % 0.00 in 0 W/m2
00:38 57.9 °F 52.5 °F 30.08 in West 1.0 mph 4.0 mph 82 % 0.00 in 0 W/m2
00:43 57.6 °F 52.1 °F 30.08 in Calm   4.0 mph 82 % 0.00 in 0 W/m2
00:48 57.6 °F 52.1 °F 30.08 in Calm   4.0 mph 82 % 0.00 in 0 W/m2
00:53 57.2 °F 51.8 °F 30.08 in Calm   1.0 mph 82 % 0.00 in 0 W/m2
00:58 56.8 °F 51.1 °F 30.08 in NW 1.0 mph 6.0 mph 81 % 0.00 in 0 W/m2
01:03 56.7 °F 50.6 °F 30.08 in NW 3.0 mph 10.0 mph 80 % 0.00 in 0 W/m2
01:08 56.7 °F 50.2 °F 30.08 in NW 4.0 mph 10.0 mph 79 % 0.00 in 0 W/m2
01:13 56.7 °F 49.9 °F 30.08 in NW 2.0 mph 8.0 mph 78 % 0.00 in 0 W/m2
01:18 56.7 °F 49.9 °F 30.08 in NW 1.0 mph 5.0 mph 78 % 0.00 in 0 W/m2
01:23 56.5 °F 49.7 °F 30.07 in Calm   2.0 mph 78 % 0.00 in 0 W/m2
01:28 56.1 °F 49.4 °F 30.07 in Calm   2.0 mph 78 % 0.00 in 0 W/m2
01:33 55.9 °F 49.2 °F 30.07 in NW 1.0 mph 4.0 mph 78 % 0.00 in 0 W/m2
01:38 55.9 °F 49.5 °F 30.07 in WNW 2.0 mph 8.0 mph 79 % 0.00 in 0 W/m2
01:43 55.9 °F 49.5 °F 30.07 in WNW 1.0 mph 8.0 mph 79 % 0.00 in 0 W/m2
01:48 55.9 °F 49.5 °F 30.07 in WNW 1.0 mph 5.0 mph 79 % 0.00 in 0 W/m2
01:53 55.9 °F 49.5 °F 30.07 in WNW 1.0 mph 5.0 mph 79 % 0.00 in 0 W/m2
01:58 55.8 °F 49.7 °F 30.07 in Calm   5.0 mph 80 % 0.00 in 0 W/m2
02:03 55.6 °F 49.5 °F 30.07 in Calm   5.0 mph 80 % 0.00 in 0 W/m2
02:08 55.6 °F 49.5 °F 30.06 in Calm   6.0 mph 80 % 0.00 in 0 W/m2
02:13 55.4 °F 49.3 °F 30.07 in NW 1.0 mph 6.0 mph 80 % 0.00 in 0 W/m2
02:18 55.4 °F 49.7 °F 30.06 in NW 1.0 mph 6.0 mph 81 % 0.00 in 0 W/m2
02:23 55.2 °F 49.5 °F 30.06 in NW 1.0 mph 5.0 mph 81 % 0.00 in 0 W/m2
02:29 55.2 °F 49.5 °F 30.06 in NW 2.0 mph 6.0 mph 81 % 0.00 in 0 W/m2
02:34 55.2 °F 49.5 °F 30.06 in WNW 4.0 mph 8.0 mph 81 % 0.00 in 0 W/m2
02:39 55.2 °F 49.5 °F 30.06 in West 5.0 mph 8.0 mph 81 % 0.00 in 0 W/m2
02:44 55.2 °F 49.5 °F 30.06 in West 4.0 mph 8.0 mph 81 % 0.00 in 0 W/m2
02:49 55.6 °F 50.2 °F 30.05 in WSW 5.0 mph 10.0 mph 82 % 0.00 in 0 W/m2
02:54 55.6 °F 49.8 °F 30.05 in SW 3.0 mph 10.0 mph 81 % 0.00 in 0 W/m2
02:59 55.4 °F 49.7 °F 30.06 in WSW 1.0 mph 7.0 mph 81 % 0.00 in 0 W/m2
03:04 55.2 °F 49.5 °F 30.05 in WNW 3.0 mph 8.0 mph 81 % 0.00 in 0 W/m2
03:09 55.4 °F 49.7 °F 30.05 in West 4.0 mph 8.0 mph 81 % 0.00 in 0 W/m2
03:14 55.4 °F 49.7 °F 30.05 in West 4.0 mph 8.0 mph 81 % 0.00 in 0 W/m2
03:19 55.2 °F 49.5 °F 30.05 in WNW 2.0 mph 8.0 mph 81 % 0.00 in 0 W/m2
03:24 55.0 °F 49.6 °F 30.05 in WNW 2.0 mph 5.0 mph 82 % 0.00 in 0 W/m2
03:34 54.7 °F 49.6 °F 30.05 in WNW 4.0 mph 8.0 mph 83 % 0.00 in 0 W/m2
03:39 54.5 °F 49.4 °F 30.04 in West 6.0 mph 12.0 mph 83 % 0.00 in 0 W/m2
03:44 54.7 °F 49.6 °F 30.04 in West 7.0 mph 12.0 mph 83 % 0.00 in 0 W/m2
03:49 54.9 °F 50.1 °F 30.04 in West 7.0 mph 12.0 mph 84 % 0.00 in 0 W/m2
03:54 55.0 °F 50.0 °F 30.04 in West 8.0 mph 12.0 mph 83 % 0.00 in 0 W/m2
03:59 55.2 °F 50.1 °F 30.04 in West 7.0 mph 11.0 mph 83 % 0.00 in 0 W/m2
04:04 55.2 °F 50.1 °F 30.04 in West 6.0 mph 11.0 mph 83 % 0.00 in 0 W/m2
04:09 55.2 °F 50.1 °F 30.04 in West 6.0 mph 9.0 mph 83 % 0.00 in 0 W/m2
04:14 55.2 °F 50.1 °F 30.04 in West 5.0 mph 10.0 mph 83 % 0.00 in 0 W/m2
04:19 55.2 °F 49.8 °F 30.04 in West 4.0 mph 10.0 mph 82 % 0.00 in 0 W/m2
04:24 55.2 °F 49.8 °F 30.04 in WSW 3.0 mph 9.0 mph 82 % 0.00 in 0 W/m2
04:29 55.2 °F 49.8 °F 30.04 in West 4.0 mph 9.0 mph 82 % 0.00 in 0 W/m2
04:34 55.0 °F 49.6 °F 30.04 in WNW 4.0 mph 8.0 mph 82 % 0.00 in 0 W/m2
04:39 55.0 °F 50.0 °F 30.03 in WNW 2.0 mph 7.0 mph 83 % 0.00 in 0 W/m2
04:44 54.9 °F 49.8 °F 30.03 in NW 1.0 mph 6.0 mph 83 % 0.00 in 0 W/m2
04:49 54.7 °F 49.6 °F 30.03 in Calm   6.0 mph 83 % 0.00 in 5 W/m2
04:54 54.9 °F 50.4 °F 30.04 in West 3.0 mph 13.0 mph 85 % 0.00 in 5 W/m2
04:59 55.0 °F 50.6 °F 30.03 in West 7.0 mph 14.0 mph 85 % 0.00 in 5 W/m2
05:04 55.2 °F 51.1 °F 30.03 in West 8.0 mph 14.0 mph 86 % 0.00 in 7 W/m2
05:09 55.4 °F 51.3 °F 30.03 in WNW 7.0 mph 14.0 mph 86 % 0.00 in 9 W/m2
05:14 55.4 °F 51.3 °F 30.03 in WNW 6.0 mph 12.0 mph 86 % 0.00 in 12 W/m2
05:19 55.6 °F 51.5 °F 30.03 in WNW 5.0 mph 9.0 mph 86 % 0.00 in 18 W/m2
05:25 55.6 °F 51.5 °F 30.03 in WNW 4.0 mph 9.0 mph 86 % 0.00 in 25 W/m2
05:30 55.6 °F 51.5 °F 30.03 in West 3.0 mph 10.0 mph 86 % 0.00 in 37 W/m2
05:35 55.6 °F 51.8 °F 30.03 in WNW 3.0 mph 10.0 mph 87 % 0.00 in 42 W/m2
05:40 55.9 °F 52.1 °F 30.03 in West 6.0 mph 16.0 mph 87 % 0.00 in 44 W/m2
05:45 56.1 °F 52.3 °F 30.03 in West 7.0 mph 16.0 mph 87 % 0.00 in 54 W/m2
05:50 56.7 °F 52.5 °F 30.03 in West 8.0 mph 16.0 mph 86 % 0.00 in 51 W/m2
05:55 56.8 °F 52.7 °F 30.03 in West 9.0 mph 18.0 mph 86 % 0.00 in 46 W/m2
06:00 57.0 °F 52.6 °F 30.03 in West 9.0 mph 18.0 mph 85 % 0.00 in 58 W/m2
06:02 57.0 °F 52.6 °F 30.03 in West 8.0 mph 18.0 mph 85 % 0.00 in 72 W/m2
06:07 57.2 °F 52.7 °F 30.02 in West 8.0 mph 15.0 mph 85 % 0.00 in 93 W/m2
06:12 57.4 °F 52.9 °F 30.02 in West 9.0 mph 16.0 mph 85 % 0.00 in 98 W/m2
06:17 57.6 °F 53.1 °F 30.03 in West 9.0 mph 16.0 mph 85 % 0.00 in 83 W/m2
06:22 57.7 °F 52.9 °F 30.03 in West 9.0 mph 15.0 mph 84 % 0.00 in 81 W/m2
06:27 57.9 °F 53.1 °F 30.02 in West 8.0 mph 15.0 mph 84 % 0.00 in 84 W/m2
06:32 58.1 °F 53.3 °F 30.03 in West 8.0 mph 15.0 mph 84 % 0.00 in 76 W/m2
06:37 58.3 °F 53.5 °F 30.03 in West 8.0 mph 15.0 mph 84 % 0.00 in 69 W/m2
06:42 58.3 °F 53.5 °F 30.03 in West 7.0 mph 15.0 mph 84 % 0.00 in 70 W/m2
06:47 58.5 °F 53.6 °F 30.03 in West 9.0 mph 16.0 mph 84 % 0.00 in 72 W/m2
06:52 58.5 °F 53.6 °F 30.03 in West 9.0 mph 16.0 mph 84 % 0.00 in 79 W/m2
06:57 58.6 °F 53.8 °F 30.03 in West 7.0 mph 14.0 mph 84 % 0.00 in 90 W/m2
07:02 58.6 °F 53.8 °F 30.03 in West 7.0 mph 12.0 mph 84 % 0.00 in 83 W/m2
07:07 58.6 °F 53.8 °F 30.03 in West 8.0 mph 12.0 mph 84 % 0.00 in 74 W/m2
07:12 58.8 °F 54.0 °F 30.03 in West 8.0 mph 18.0 mph 84 % 0.00 in 76 W/m2
07:17 58.8 °F 54.0 °F 30.03 in West 9.0 mph 18.0 mph 84 % 0.00 in 72 W/m2
07:22 58.8 °F 54.0 °F 30.03 in West 8.0 mph 13.0 mph 84 % 0.00 in 79 W/m2
07:27 58.8 °F 54.0 °F 30.03 in West 9.0 mph 15.0 mph 84 % 0.00 in 83 W/m2
07:32 58.8 °F 54.3 °F 30.03 in West 9.0 mph 15.0 mph 85 % 0.00 in 79 W/m2
07:37 58.8 °F 54.3 °F 30.03 in West 9.0 mph 18.0 mph 85 % 0.00 in 86 W/m2
07:42 58.8 °F 54.3 °F 30.03 in West 9.0 mph 18.0 mph 85 % 0.00 in 88 W/m2
07:47 59.0 °F 54.5 °F 30.03 in West 9.0 mph 16.0 mph 85 % 0.00 in 95 W/m2
07:53 59.0 °F 54.5 °F 30.03 in West 10.0 mph 23.0 mph 85 % 0.00 in 104 W/m2
07:58 59.2 °F 54.7 °F 30.03 in West 10.0 mph 23.0 mph 85 % 0.00 in 102 W/m2
08:03 59.2 °F 54.7 °F 30.04 in West 9.0 mph 16.0 mph 85 % 0.00 in 104 W/m2
08:04 59.4 °F 54.8 °F 30.04 in West 8.0 mph 14.0 mph 85 % 0.00 in 105 W/m2
08:09 59.4 °F 54.8 °F 30.04 in West 9.0 mph 14.0 mph 85 % 0.00 in 111 W/m2
08:14 59.5 °F 55.0 °F 30.04 in West 9.0 mph 15.0 mph 85 % 0.00 in 125 W/m2
08:19 59.5 °F 54.7 °F 30.04 in West 8.0 mph 15.0 mph 84 % 0.00 in 134 W/m2
08:24 59.7 °F 54.9 °F 30.04 in West 9.0 mph 15.0 mph 84 % 0.00 in 134 W/m2
08:29 59.9 °F 55.1 °F 30.04 in West 9.0 mph 18.0 mph 84 % 0.00 in 127 W/m2
08:34 60.1 °F 55.2 °F 30.04 in West 9.0 mph 18.0 mph 84 % 0.00 in 142 W/m2
08:39 60.3 °F 55.4 °F 30.04 in West 8.0 mph 16.0 mph 84 % 0.00 in 156 W/m2
08:44 60.3 °F 55.4 °F 30.04 in West 7.0 mph 12.0 mph 84 % 0.00 in 155 W/m2
08:49 60.4 °F 55.3 °F 30.04 in West 8.0 mph 13.0 mph 83 % 0.00 in 139 W/m2
08:54 60.4 °F 55.3 °F 30.05 in West 9.0 mph 13.0 mph 83 % 0.00 in 118 W/m2
08:59 60.6 °F 55.4 °F 30.05 in West 8.0 mph 13.0 mph 83 % 0.00 in 102 W/m2
09:04 60.6 °F 55.4 °F 30.05 in West 7.0 mph 13.0 mph 83 % 0.00 in 114 W/m2
09:09 60.8 °F 55.6 °F 30.05 in West 8.0 mph 14.0 mph 83 % 0.00 in 141 W/m2
09:14 61.0 °F 56.1 °F 30.05 in WNW 8.0 mph 15.0 mph 84 % 0.00 in 134 W/m2
09:19 61.0 °F 55.8 °F 30.04 in West 7.0 mph 15.0 mph 83 % 0.00 in 165 W/m2
09:24 61.0 °F 56.1 °F 30.04 in West 6.0 mph 12.0 mph 84 % 0.00 in 262 W/m2
09:29 61.2 °F 56.3 °F 30.04 in WNW 5.0 mph 9.0 mph 84 % 0.00 in 320 W/m2
09:35 61.5 °F 56.6 °F 30.04 in West 5.0 mph 8.0 mph 84 % 0.00 in 425 W/m2
09:40 62.2 °F 56.7 °F 30.04 in West 6.0 mph 13.0 mph 82 % 0.00 in 387 W/m2
09:45 63.1 °F 56.5 °F 30.04 in West 8.0 mph 14.0 mph 79 % 0.00 in 204 W/m2
09:50 63.3 °F 56.3 °F 30.04 in West 8.0 mph 16.0 mph 78 % 0.00 in 229 W/m2
09:55 63.3 °F 56.3 °F 30.04 in West 8.0 mph 16.0 mph 78 % 0.00 in 230 W/m2
10:00 63.5 °F 56.2 °F 30.04 in West 9.0 mph 16.0 mph 77 % 0.00 in 236 W/m2
10:05 63.5 °F 56.5 °F 30.04 in West 9.0 mph 16.0 mph 78 % 0.00 in 214 W/m2
10:10 63.5 °F 56.2 °F 30.04 in West 8.0 mph 15.0 mph 77 % 0.00 in 193 W/m2
10:15 63.3 °F 56.0 °F 30.05 in West 9.0 mph 16.0 mph 77 % 0.00 in 171 W/m2
10:20 63.1 °F 55.8 °F 30.05 in West 9.0 mph 16.0 mph 77 % 0.00 in 118 W/m2
10:25 63.0 °F 56.0 °F 30.05 in West 9.0 mph 14.0 mph 78 % 0.00 in 220 W/m2
10:30 63.0 °F 56.7 °F 30.04 in West 8.0 mph 14.0 mph 80 % 0.00 in 343 W/m2
10:35 63.1 °F 56.5 °F 30.05 in West 7.0 mph 14.0 mph 79 % 0.00 in 258 W/m2
10:40 63.5 °F 56.5 °F 30.04 in West 9.0 mph 19.0 mph 78 % 0.00 in 197 W/m2
10:45 63.7 °F 56.0 °F 30.04 in West 10.0 mph 19.0 mph 76 % 0.00 in 241 W/m2
10:50 63.9 °F 56.5 °F 30.04 in West 9.0 mph 15.0 mph 77 % 0.00 in 260 W/m2
10:55 64.0 °F 56.7 °F 30.04 in West 8.0 mph 15.0 mph 77 % 0.00 in 213 W/m2
11:00 64.0 °F 56.3 °F 30.04 in West 9.0 mph 16.0 mph 76 % 0.00 in 232 W/m2
11:05 64.4 °F 55.9 °F 30.04 in West 10.0 mph 18.0 mph 74 % 0.00 in 244 W/m2
11:10 64.6 °F 56.1 °F 30.04 in WNW 9.0 mph 18.0 mph 74 % 0.00 in 345 W/m2
11:15 64.9 °F 56.1 °F 30.05 in WNW 9.0 mph 18.0 mph 73 % 0.00 in 239 W/m2
11:20 64.9 °F 55.7 °F 30.04 in West 10.0 mph 18.0 mph 72 % 0.00 in 246 W/m2
11:25 64.9 °F 55.7 °F 30.05 in West 12.0 mph 21.0 mph 72 % 0.00 in 478 W/m2
11:31 65.1 °F 55.5 °F 30.05 in West 13.0 mph 21.0 mph 71 % 0.00 in 332 W/m2
11:36 65.3 °F 55.7 °F 30.05 in WNW 11.0 mph 19.0 mph 71 % 0.00 in 251 W/m2
11:41 65.7 °F 56.0 °F 30.04 in WNW 11.0 mph 19.0 mph 71 % 0.00 in 469 W/m2
11:46 66.4 °F 56.3 °F 30.05 in WNW 12.0 mph 22.0 mph 70 % 0.00 in 302 W/m2
11:51 66.4 °F 55.9 °F 30.05 in WNW 12.0 mph 24.0 mph 69 % 0.00 in 274 W/m2
11:56 66.0 °F 55.2 °F 30.05 in West 12.0 mph 24.0 mph 68 % 0.00 in 265 W/m2
12:06 65.7 °F 55.6 °F 30.05 in West 9.0 mph 18.0 mph 70 % 0.00 in 336 W/m2
12:11 65.8 °F 55.4 °F 30.05 in WNW 9.0 mph 15.0 mph 69 % 0.00 in 316 W/m2
12:16 66.0 °F 55.6 °F 30.05 in West 9.0 mph 16.0 mph 69 % 0.00 in 338 W/m2
12:21 66.4 °F 55.5 °F 30.05 in WNW 9.0 mph 19.0 mph 68 % 0.00 in 276 W/m2
12:26 66.6 °F 55.3 °F 30.05 in West 10.0 mph 19.0 mph 67 % 0.00 in 404 W/m2
12:31 67.1 °F 54.9 °F 30.05 in West 11.0 mph 23.0 mph 65 % 0.00 in 499 W/m2
12:36 68.2 °F 55.1 °F 30.05 in West 11.0 mph 23.0 mph 63 % 0.00 in 508 W/m2
12:41 68.4 °F 55.3 °F 30.05 in West 11.0 mph 20.0 mph 63 % 0.00 in 473 W/m2
12:46 68.4 °F 55.3 °F 30.05 in WNW 11.0 mph 19.0 mph 63 % 0.00 in 411 W/m2
12:51 68.4 °F 55.3 °F 30.05 in WNW 9.0 mph 19.0 mph 63 % 0.00 in 332 W/m2
12:56 68.4 °F 54.8 °F 30.06 in West 10.0 mph 26.0 mph 62 % 0.00 in 432 W/m2
13:01 67.8 °F 54.8 °F 30.06 in WNW 13.0 mph 26.0 mph 63 % 0.00 in 360 W/m2
13:06 67.6 °F 55.0 °F 30.06 in WNW 11.0 mph 20.0 mph 64 % 0.00 in 404 W/m2
13:11 67.5 °F 55.3 °F 30.05 in WNW 10.0 mph 19.0 mph 65 % 0.00 in 443 W/m2
13:16 67.3 °F 54.7 °F 30.05 in WNW 11.0 mph 19.0 mph 64 % 0.00 in 357 W/m2
13:21 67.5 °F 54.4 °F 30.05 in WNW 11.0 mph 23.0 mph 63 % 0.00 in 383 W/m2
13:26 67.5 °F 54.0 °F 30.05 in West 12.0 mph 23.0 mph 62 % 0.00 in 385 W/m2
13:31 67.3 °F 54.3 °F 30.06 in West 13.0 mph 22.0 mph 63 % 0.00 in 436 W/m2
13:36 67.3 °F 54.7 °F 30.06 in West 13.0 mph 20.0 mph 64 % 0.00 in 454 W/m2
13:41 67.5 °F 54.9 °F 30.06 in WNW 11.0 mph 20.0 mph 64 % 0.00 in 480 W/m2
13:46 67.6 °F 54.2 °F 30.06 in WNW 11.0 mph 21.0 mph 62 % 0.00 in 654 W/m2
13:51 67.6 °F 54.6 °F 30.06 in WNW 12.0 mph 21.0 mph 63 % 0.00 in 898 W/m2
13:57 67.8 °F 54.3 °F 30.06 in WNW 13.0 mph 22.0 mph 62 % 0.00 in 443 W/m2
14:02 67.6 °F 53.7 °F 30.06 in WNW 13.0 mph 22.0 mph 61 % 0.00 in 301 W/m2
14:07 67.6 °F 54.2 °F 30.06 in West 13.0 mph 22.0 mph 62 % 0.00 in 735 W/m2
14:12 68.4 °F 54.8 °F 30.06 in West 13.0 mph 25.0 mph 62 % 0.00 in 1020 W/m2
14:17 68.9 °F 54.0 °F 30.06 in WNW 14.0 mph 25.0 mph 59 % 0.00 in 933 W/m2
14:22 69.3 °F 54.8 °F 30.06 in WNW 13.0 mph 25.0 mph 60 % 0.00 in 1018 W/m2
14:27 69.4 °F 54.5 °F 30.06 in WNW 12.0 mph 23.0 mph 59 % 0.00 in 970 W/m2
14:32 69.6 °F 54.2 °F 30.06 in WNW 13.0 mph 23.0 mph 58 % 0.00 in 1042 W/m2
14:37 69.4 °F 54.0 °F 30.06 in WNW 14.0 mph 23.0 mph 58 % 0.00 in 299 W/m2
14:42 69.3 °F 52.9 °F 30.06 in WNW 14.0 mph 24.0 mph 56 % 0.00 in 1014 W/m2
14:47 69.3 °F 53.4 °F 30.06 in WNW 14.0 mph 24.0 mph 57 % 0.00 in 670 W/m2
14:52 69.1 °F 53.7 °F 30.07 in West 13.0 mph 24.0 mph 58 % 0.00 in 373 W/m2
14:57 68.4 °F 53.5 °F 30.07 in WNW 12.0 mph 22.0 mph 59 % 0.00 in 381 W/m2
15:02 68.2 °F 53.3 °F 30.07 in WNW 11.0 mph 22.0 mph 59 % 0.00 in 457 W/m2
15:07 67.8 °F 53.0 °F 30.07 in WNW 12.0 mph 24.0 mph 59 % 0.00 in 510 W/m2
15:12 67.6 °F 52.3 °F 30.07 in WNW 13.0 mph 25.0 mph 58 % 0.00 in 490 W/m2
15:17 67.6 °F 52.3 °F 30.07 in WNW 13.0 mph 25.0 mph 58 % 0.00 in 471 W/m2
15:22 67.6 °F 52.8 °F 30.07 in West 11.0 mph 20.0 mph 59 % 0.00 in 403 W/m2
15:27 67.8 °F 53.0 °F 30.07 in WNW 11.0 mph 20.0 mph 59 % 0.00 in 420 W/m2
15:32 67.6 °F 51.9 °F 30.07 in WNW 12.0 mph 19.0 mph 57 % 0.00 in 454 W/m2
15:37 67.6 °F 52.3 °F 30.07 in WNW 13.0 mph 27.0 mph 58 % 0.00 in 396 W/m2
15:42 67.6 °F 52.3 °F 30.07 in WNW 13.0 mph 27.0 mph 58 % 0.00 in 462 W/m2
15:47 67.5 °F 52.6 °F 30.07 in WNW 12.0 mph 20.0 mph 59 % 0.00 in 352 W/m2
15:53 67.5 °F 52.6 °F 30.07 in WNW 12.0 mph 22.0 mph 59 % 0.00 in 387 W/m2
15:58 67.5 °F 52.6 °F 30.07 in WNW 11.0 mph 23.0 mph 59 % 0.00 in 380 W/m2
16:03 67.5 °F 52.6 °F 30.08 in WNW 11.0 mph 23.0 mph 59 % 0.00 in 782 W/m2
16:08 67.6 °F 52.3 °F 30.08 in West 12.0 mph 22.0 mph 58 % 0.00 in 856 W/m2
16:13 68.2 °F 52.4 °F 30.08 in WNW 13.0 mph 28.0 mph 57 % 0.00 in 802 W/m2
16:18 68.4 °F 52.5 °F 30.07 in WNW 13.0 mph 28.0 mph 57 % 0.00 in 473 W/m2
16:23 68.2 °F 51.9 °F 30.08 in West 13.0 mph 25.0 mph 56 % 0.00 in 751 W/m2
16:28 68.2 °F 51.9 °F 30.08 in West 14.0 mph 23.0 mph 56 % 0.00 in 796 W/m2
16:33 68.5 °F 52.2 °F 30.07 in WNW 13.0 mph 23.0 mph 56 % 0.00 in 680 W/m2
16:38 68.7 °F 52.9 °F 30.08 in WNW 11.0 mph 23.0 mph 57 % 0.00 in 722 W/m2
16:43 69.1 °F 52.7 °F 30.08 in West 11.0 mph 21.0 mph 56 % 0.00 in 719 W/m2
16:48 68.7 °F 51.9 °F 30.08 in West 13.0 mph 27.0 mph 55 % 0.00 in 591 W/m2
16:53 68.4 °F 51.6 °F 30.07 in West 14.0 mph 27.0 mph 55 % 0.00 in 624 W/m2
16:58 68.4 °F 52.0 °F 30.08 in West 12.0 mph 25.0 mph 56 % 0.00 in 638 W/m2
17:03 68.5 °F 51.7 °F 30.08 in WNW 12.0 mph 22.0 mph 55 % 0.00 in 643 W/m2
17:08 68.4 °F 51.6 °F 30.08 in West 11.0 mph 22.0 mph 55 % 0.00 in 619 W/m2
17:13 68.2 °F 51.4 °F 30.08 in West 11.0 mph 25.0 mph 55 % 0.00 in 619 W/m2
17:18 68.0 °F 51.2 °F 30.08 in West 12.0 mph 25.0 mph 55 % 0.00 in 631 W/m2
17:23 68.0 °F 51.2 °F 30.08 in WNW 12.0 mph 22.0 mph 55 % 0.00 in 608 W/m2
17:28 68.2 °F 51.4 °F 30.08 in WNW 11.0 mph 20.0 mph 55 % 0.00 in 633 W/m2
17:33 67.8 °F 51.1 °F 30.08 in West 12.0 mph 22.0 mph 55 % 0.00 in 179 W/m2
17:38 67.3 °F 51.5 °F 30.08 in West 12.0 mph 22.0 mph 57 % 0.00 in 638 W/m2
17:43 67.1 °F 51.8 °F 30.08 in West 10.0 mph 19.0 mph 58 % 0.00 in 206 W/m2
17:48 66.7 °F 51.5 °F 30.08 in West 10.0 mph 19.0 mph 58 % 0.00 in 183 W/m2
17:53 66.6 °F 51.8 °F 30.08 in West 10.0 mph 19.0 mph 59 % 0.00 in 192 W/m2
17:58 66.4 °F 51.6 °F 30.08 in WNW 10.0 mph 20.0 mph 59 % 0.00 in 338 W/m2
18:03 66.2 °F 50.5 °F 30.09 in WNW 12.0 mph 22.0 mph 57 % 0.00 in 248 W/m2
18:08 66.0 °F 50.8 °F 30.08 in WNW 12.0 mph 22.0 mph 58 % 0.00 in 200 W/m2
18:13 65.8 °F 51.1 °F 30.08 in WNW 10.0 mph 19.0 mph 59 % 0.00 in 181 W/m2
18:18 65.5 °F 50.8 °F 30.08 in WNW 11.0 mph 21.0 mph 59 % 0.00 in 186 W/m2
18:23 65.5 °F 51.2 °F 30.08 in WNW 11.0 mph 21.0 mph 60 % 0.00 in 183 W/m2
18:28 65.1 °F 50.0 °F 30.09 in WNW 10.0 mph 20.0 mph 58 % 0.00 in 169 W/m2
18:33 64.8 °F 50.1 °F 30.09 in WNW 11.0 mph 20.0 mph 59 % 0.00 in 156 W/m2
18:38 64.6 °F 49.9 °F 30.09 in WNW 11.0 mph 23.0 mph 59 % 0.00 in 139 W/m2
18:43 64.2 °F 49.6 °F 30.09 in WNW 12.0 mph 23.0 mph 59 % 0.00 in 132 W/m2
18:48 64.0 °F 49.4 °F 30.09 in WNW 11.0 mph 21.0 mph 59 % 0.00 in 163 W/m2
18:53 63.9 °F 49.7 °F 30.09 in WNW 11.0 mph 21.0 mph 60 % 0.00 in 144 W/m2
18:58 63.7 °F 49.1 °F 30.10 in WNW 11.0 mph 21.0 mph 59 % 0.00 in 132 W/m2
19:03 63.5 °F 49.4 °F 30.10 in NW 11.0 mph 21.0 mph 60 % 0.00 in 109 W/m2
19:08 63.3 °F 49.2 °F 30.10 in WNW 9.0 mph 19.0 mph 60 % 0.00 in 123 W/m2
19:13 63.3 °F 49.2 °F 30.10 in WNW 10.0 mph 19.0 mph 60 % 0.00 in 130 W/m2
19:18 63.1 °F 49.0 °F 30.10 in WNW 10.0 mph 19.0 mph 60 % 0.00 in 128 W/m2
19:24 63.1 °F 49.0 °F 30.10 in NW 10.0 mph 18.0 mph 60 % 0.00 in 135 W/m2
19:28 63.1 °F 49.5 °F 30.10 in NW 10.0 mph 19.0 mph 61 % 0.00 in 109 W/m2
19:34 63.0 °F 48.9 °F 30.10 in NW 10.0 mph 19.0 mph 60 % 0.00 in 104 W/m2
19:39 62.8 °F 48.7 °F 30.10 in NW 9.0 mph 16.0 mph 60 % 0.00 in 88 W/m2
19:44 62.8 °F 48.7 °F 30.10 in NW 8.0 mph 16.0 mph 60 % 0.00 in 104 W/m2
19:49 62.6 °F 49.0 °F 30.10 in NW 7.0 mph 14.0 mph 61 % 0.00 in 76 W/m2
19:54 62.4 °F 47.9 °F 30.10 in NW 7.0 mph 14.0 mph 59 % 0.00 in 65 W/m2
19:59 62.2 °F 48.2 °F 30.10 in NW 7.0 mph 13.0 mph 60 % 0.00 in 58 W/m2
20:04 62.1 °F 48.0 °F 30.10 in NW 6.0 mph 13.0 mph 60 % 0.00 in 46 W/m2
20:09 61.7 °F 47.2 °F 30.10 in NW 6.0 mph 15.0 mph 59 % 0.00 in 37 W/m2
20:14 61.5 °F 47.5 °F 30.11 in NW 8.0 mph 15.0 mph 60 % 0.00 in 26 W/m2
20:19 61.3 °F 47.3 °F 30.10 in NW 7.0 mph 15.0 mph 60 % 0.00 in 23 W/m2
20:24 61.3 °F 47.8 °F 30.11 in NW 6.0 mph 12.0 mph 61 % 0.00 in 23 W/m2
20:29 61.2 °F 47.6 °F 30.11 in NW 6.0 mph 12.0 mph 61 % 0.00 in 21 W/m2
20:34 61.2 °F 47.6 °F 30.11 in WNW 7.0 mph 12.0 mph 61 % 0.00 in 19 W/m2
20:39 61.0 °F 47.4 °F 30.11 in WNW 7.0 mph 12.0 mph 61 % 0.00 in 18 W/m2
20:44 60.8 °F 47.3 °F 30.11 in WNW 5.0 mph 13.0 mph 61 % 0.00 in 16 W/m2
20:49 60.6 °F 47.1 °F 30.11 in WNW 4.0 mph 13.0 mph 61 % 0.00 in 14 W/m2
20:54 60.4 °F 46.0 °F 30.12 in WNW 4.0 mph 10.0 mph 59 % 0.00 in 14 W/m2
20:59 60.3 °F 45.9 °F 30.11 in WNW 5.0 mph 11.0 mph 59 % 0.00 in 14 W/m2
21:04 60.1 °F 45.7 °F 30.12 in WNW 4.0 mph 11.0 mph 59 % 0.00 in 9 W/m2
21:06 60.1 °F 45.2 °F 30.11 in WNW 4.0 mph 9.0 mph 58 % 0.00 in 9 W/m2
21:11 59.9 °F 45.1 °F 30.12 in WNW 4.0 mph 9.0 mph 58 % 0.00 in 5 W/m2
21:16 59.7 °F 44.9 °F 30.12 in WNW 4.0 mph 9.0 mph 58 % 0.00 in 5 W/m2
21:21 59.7 °F 44.9 °F 30.12 in WNW 4.0 mph 10.0 mph 58 % 0.00 in 0 W/m2
21:26 59.7 °F 44.9 °F 30.12 in WNW 4.0 mph 10.0 mph 58 % 0.00 in 0 W/m2
21:31 59.5 °F 44.7 °F 30.12 in WNW 3.0 mph 7.0 mph 58 % 0.00 in 0 W/m2
21:36 59.5 °F 44.7 °F 30.12 in WNW 2.0 mph 6.0 mph 58 % 0.00 in 0 W/m2
21:41 59.4 °F 45.0 °F 30.12 in WNW 1.0 mph 4.0 mph 59 % 0.00 in 0 W/m2
21:46 59.4 °F 45.5 °F 30.12 in WNW 1.0 mph 4.0 mph 60 % 0.00 in 0 W/m2
21:52 59.2 °F 45.7 °F 30.13 in Calm   1.0 mph 61 % 0.00 in 0 W/m2
21:56 59.2 °F 45.7 °F 30.13 in WNW 1.0 mph 4.0 mph 61 % 0.00 in 0 W/m2
22:02 59.0 °F 46.0 °F 30.13 in WNW 1.0 mph 4.0 mph 62 % 0.00 in 0 W/m2
22:07 58.8 °F 46.2 °F 30.13 in Calm   2.0 mph 63 % 0.00 in 0 W/m2
22:12 58.6 °F 45.7 °F 30.13 in WNW 1.0 mph 5.0 mph 62 % 0.00 in 0 W/m2
22:17 58.5 °F 45.5 °F 30.12 in WNW 3.0 mph 6.0 mph 62 % 0.00 in 0 W/m2
22:22 58.5 °F 46.3 °F 30.13 in WNW 4.0 mph 8.0 mph 64 % 0.00 in 0 W/m2
22:27 58.5 °F 46.7 °F 30.12 in WNW 4.0 mph 8.0 mph 65 % 0.00 in 0 W/m2
22:32 58.3 °F 46.6 °F 30.13 in WNW 5.0 mph 8.0 mph 65 % 0.00 in 0 W/m2
22:37 57.9 °F 46.6 °F 30.13 in WNW 4.0 mph 8.0 mph 66 % 0.00 in 0 W/m2
22:42 57.7 °F 46.9 °F 30.13 in West 2.0 mph 5.0 mph 67 % 0.00 in 0 W/m2
22:47 57.6 °F 46.7 °F 30.13 in West 2.0 mph 6.0 mph 67 % 0.00 in 0 W/m2
22:52 57.6 °F 47.1 °F 30.13 in West 3.0 mph 6.0 mph 68 % 0.00 in 0 W/m2
22:57 57.4 °F 46.5 °F 30.13 in West 1.0 mph 6.0 mph 67 % 0.00 in 0 W/m2
22:58 57.4 °F 46.5 °F 30.13 in West 1.0 mph 6.0 mph 67 % 0.00 in 0 W/m2
23:03 57.4 °F 46.9 °F 30.13 in Calm   1.0 mph 68 % 0.00 in 0 W/m2
23:08 57.4 °F 46.9 °F 30.13 in West 1.0 mph 5.0 mph 68 % 0.00 in 0 W/m2
23:13 57.4 °F 46.9 °F 30.13 in West 3.0 mph 6.0 mph 68 % 0.00 in 0 W/m2
23:18 57.2 °F 46.7 °F 30.13 in WNW 4.0 mph 6.0 mph 68 % 0.00 in 0 W/m2
23:23 57.2 °F 47.1 °F 30.13 in WNW 4.0 mph 6.0 mph 69 % 0.00 in 0 W/m2
23:28 57.2 °F 47.1 °F 30.13 in WNW 4.0 mph 9.0 mph 69 % 0.00 in 0 W/m2
23:33 57.0 °F 46.6 °F 30.13 in WNW 3.0 mph 9.0 mph 68 % 0.00 in 0 W/m2
23:38 57.0 °F 46.9 °F 30.13 in WNW 3.0 mph 7.0 mph 69 % 0.00 in 0 W/m2
23:43 57.0 °F 46.9 °F 30.13 in WNW 1.0 mph 6.0 mph 69 % 0.00 in 0 W/m2
23:48 57.0 °F 47.3 °F 30.13 in Calm   2.0 mph 70 % 0.00 in 0 W/m2
23:53 57.0 °F 47.3 °F 30.14 in WNW 1.0 mph 4.0 mph 70 % 0.00 in 0 W/m2
23:58 57.0 °F 46.9 °F 30.14 in WNW 2.0 mph 7.0 mph 69 % 0.00 in 0 W/m2
Delerius-Weather
Compliments of Weather Underground - 2.25 mb

Data updates at regular intervals.